sensor_id;sensor_type;location;lat;lon;timestamp;temperature;humidity
11840;DHT22;5979;50.800;4.904;2023-05-10T00:00:35;13.80;99.90
11840;DHT22;5979;50.800;4.904;2023-05-10T00:03:01;13.80;99.90
11840;DHT22;5979;50.800;4.904;2023-05-10T00:05:26;13.80;99.90
11840;DHT22;5979;50.800;4.904;2023-05-10T00:07:52;13.70;99.90
11840;DHT22;5979;50.800;4.904;2023-05-10T00:10:18;13.70;99.90
11840;DHT22;5979;50.800;4.904;2023-05-10T00:12:43;13.70;99.90
11840;DHT22;5979;50.800;4.904;2023-05-10T00:15:09;13.60;99.90
11840;DHT22;5979;50.800;4.904;2023-05-10T00:17:35;13.60;99.90
11840;DHT22;5979;50.800;4.904;2023-05-10T00:20:01;13.60;99.90
11840;DHT22;5979;50.800;4.904;2023-05-10T00:22:27;13.60;99.90
11840;DHT22;5979;50.800;4.904;2023-05-10T00:24:53;13.70;99.90
11840;DHT22;5979;50.800;4.904;2023-05-10T00:27:18;13.70;99.90
11840;DHT22;5979;50.800;4.904;2023-05-10T00:29:44;13.70;99.90
11840;DHT22;5979;50.800;4.904;2023-05-10T00:32:10;13.80;99.90
11840;DHT22;5979;50.800;4.904;2023-05-10T00:34:36;13.80;99.90
11840;DHT22;5979;50.800;4.904;2023-05-10T00:37:01;13.80;99.90
11840;DHT22;5979;50.800;4.904;2023-05-10T00:39:27;13.80;99.90
11840;DHT22;5979;50.800;4.904;2023-05-10T00:41:54;13.80;99.90
11840;DHT22;5979;50.800;4.904;2023-05-10T00:44:20;13.80;99.90
11840;DHT22;5979;50.800;4.904;2023-05-10T00:46:46;13.80;99.90
11840;DHT22;5979;50.800;4.904;2023-05-10T00:49:13;13.80;99.90
11840;DHT22;5979;50.800;4.904;2023-05-10T00:51:39;13.80;99.90
11840;DHT22;5979;50.800;4.904;2023-05-10T00:54:05;13.80;99.90
11840;DHT22;5979;50.800;4.904;2023-05-10T00:56:32;13.80;99.90
11840;DHT22;5979;50.800;4.904;2023-05-10T00:58:58;13.80;99.90
11840;DHT22;5979;50.800;4.904;2023-05-10T01:01:23;13.70;99.90
11840;DHT22;5979;50.800;4.904;2023-05-10T01:03:50;13.80;99.90
11840;DHT22;5979;50.800;4.904;2023-05-10T01:06:16;13.70;99.90
11840;DHT22;5979;50.800;4.904;2023-05-10T01:08:42;13.70;99.90
11840;DHT22;5979;50.800;4.904;2023-05-10T01:11:08;13.70;99.90
11840;DHT22;5979;50.800;4.904;2023-05-10T01:13:36;13.70;99.90
11840;DHT22;5979;50.800;4.904;2023-05-10T01:16:04;13.70;99.90
11840;DHT22;5979;50.800;4.904;2023-05-10T01:18:36;13.70;99.90
11840;DHT22;5979;50.800;4.904;2023-05-10T01:35:19;13.70;99.90
11840;DHT22;5979;50.800;4.904;2023-05-10T01:37:50;13.80;99.90
11840;DHT22;5979;50.800;4.904;2023-05-10T01:40:23;13.70;99.90
11840;DHT22;5979;50.800;4.904;2023-05-10T01:42:54;13.70;99.90
11840;DHT22;5979;50.800;4.904;2023-05-10T01:45:33;13.70;99.90
11840;DHT22;5979;50.800;4.904;2023-05-10T01:48:10;13.70;99.90
11840;DHT22;5979;50.800;4.904;2023-05-10T01:50:40;13.70;99.90
11840;DHT22;5979;50.800;4.904;2023-05-10T01:53:09;13.70;99.90
11840;DHT22;5979;50.800;4.904;2023-05-10T01:55:44;13.70;99.90
11840;DHT22;5979;50.800;4.904;2023-05-10T01:58:14;13.60;99.90
11840;DHT22;5979;50.800;4.904;2023-05-10T02:00:43;13.70;99.90
11840;DHT22;5979;50.800;4.904;2023-05-10T02:03:10;13.70;99.90
11840;DHT22;5979;50.800;4.904;2023-05-10T02:05:38;13.60;99.90
11840;DHT22;5979;50.800;4.904;2023-05-10T02:08:06;13.70;99.90
11840;DHT22;5979;50.800;4.904;2023-05-10T02:10:34;13.70;99.90
11840;DHT22;5979;50.800;4.904;2023-05-10T02:13:02;13.70;99.90
11840;DHT22;5979;50.800;4.904;2023-05-10T02:15:29;13.70;99.90
11840;DHT22;5979;50.800;4.904;2023-05-10T02:17:58;13.70;99.90
11840;DHT22;5979;50.800;4.904;2023-05-10T02:20:26;13.70;99.90
11840;DHT22;5979;50.800;4.904;2023-05-10T02:22:54;13.70;99.90
11840;DHT22;5979;50.800;4.904;2023-05-10T02:25:21;13.70;99.90
11840;DHT22;5979;50.800;4.904;2023-05-10T02:27:48;13.70;99.90
11840;DHT22;5979;50.800;4.904;2023-05-10T02:30:16;13.70;99.90
11840;DHT22;5979;50.800;4.904;2023-05-10T02:32:43;13.80;99.90
11840;DHT22;5979;50.800;4.904;2023-05-10T02:35:09;13.70;99.90
11840;DHT22;5979;50.800;4.904;2023-05-10T02:37:37;13.80;99.90
11840;DHT22;5979;50.800;4.904;2023-05-10T02:40:05;13.70;99.90
11840;DHT22;5979;50.800;4.904;2023-05-10T02:42:35;13.80;99.90
11840;DHT22;5979;50.800;4.904;2023-05-10T02:45:03;13.80;99.90
11840;DHT22;5979;50.800;4.904;2023-05-10T02:47:30;13.80;99.90
11840;DHT22;5979;50.800;4.904;2023-05-10T02:49:56;13.80;99.90
11840;DHT22;5979;50.800;4.904;2023-05-10T02:52:34;13.80;99.90
11840;DHT22;5979;50.800;4.904;2023-05-10T02:55:02;13.80;99.90
11840;DHT22;5979;50.800;4.904;2023-05-10T02:57:33;13.80;99.90
11840;DHT22;5979;50.800;4.904;2023-05-10T02:59:59;13.80;99.90
11840;DHT22;5979;50.800;4.904;2023-05-10T03:02:26;13.80;99.90
11840;DHT22;5979;50.800;4.904;2023-05-10T03:04:52;13.90;99.90
11840;DHT22;5979;50.800;4.904;2023-05-10T03:07:18;13.80;99.90
11840;DHT22;5979;50.800;4.904;2023-05-10T03:09:47;13.80;99.90
11840;DHT22;5979;50.800;4.904;2023-05-10T03:12:35;13.80;99.90
11840;DHT22;5979;50.800;4.904;2023-05-10T03:15:25;13.80;99.90
11840;DHT22;5979;50.800;4.904;2023-05-10T03:18:01;13.80;99.90
11840;DHT22;5979;50.800;4.904;2023-05-10T03:20:34;13.80;99.90
11840;DHT22;5979;50.800;4.904;2023-05-10T03:23:11;13.80;99.90
11840;DHT22;5979;50.800;4.904;2023-05-10T03:25:37;13.70;99.90
11840;DHT22;5979;50.800;4.904;2023-05-10T03:28:06;13.70;99.90
11840;DHT22;5979;50.800;4.904;2023-05-10T03:30:33;13.70;99.90
11840;DHT22;5979;50.800;4.904;2023-05-10T03:33:07;13.70;99.90
11840;DHT22;5979;50.800;4.904;2023-05-10T03:35:33;13.70;99.90
11840;DHT22;5979;50.800;4.904;2023-05-10T03:37:59;13.80;99.90
11840;DHT22;5979;50.800;4.904;2023-05-10T03:40:26;13.80;99.90
11840;DHT22;5979;50.800;4.904;2023-05-10T03:42:51;13.70;99.90
11840;DHT22;5979;50.800;4.904;2023-05-10T03:45:17;13.80;99.90
11840;DHT22;5979;50.800;4.904;2023-05-10T03:47:43;13.80;99.90
11840;DHT22;5979;50.800;4.904;2023-05-10T03:50:09;13.70;99.90
11840;DHT22;5979;50.800;4.904;2023-05-10T03:52:35;13.70;99.90
11840;DHT22;5979;50.800;4.904;2023-05-10T03:55:01;13.70;99.90
11840;DHT22;5979;50.800;4.904;2023-05-10T03:57:29;13.60;99.90
11840;DHT22;5979;50.800;4.904;2023-05-10T03:59:54;13.60;99.90
11840;DHT22;5979;50.800;4.904;2023-05-10T04:02:20;13.60;99.90
11840;DHT22;5979;50.800;4.904;2023-05-10T04:04:46;13.60;99.90
11840;DHT22;5979;50.800;4.904;2023-05-10T04:07:12;13.60;99.90
11840;DHT22;5979;50.800;4.904;2023-05-10T04:09:37;13.60;99.90
11840;DHT22;5979;50.800;4.904;2023-05-10T04:12:03;13.60;99.90
11840;DHT22;5979;50.800;4.904;2023-05-10T04:14:29;13.60;99.90
11840;DHT22;5979;50.800;4.904;2023-05-10T04:16:55;13.60;99.90
11840;DHT22;5979;50.800;4.904;2023-05-10T04:19:21;13.50;99.90
11840;DHT22;5979;50.800;4.904;2023-05-10T04:21:46;13.50;99.90
11840;DHT22;5979;50.800;4.904;2023-05-10T04:24:12;13.50;99.90
11840;DHT22;5979;50.800;4.904;2023-05-10T04:26:38;13.50;99.90
11840;DHT22;5979;50.800;4.904;2023-05-10T04:29:04;13.50;99.90
11840;DHT22;5979;50.800;4.904;2023-05-10T04:31:29;13.50;99.90
11840;DHT22;5979;50.800;4.904;2023-05-10T04:33:55;13.50;99.90
11840;DHT22;5979;50.800;4.904;2023-05-10T04:36:21;13.50;99.90
11840;DHT22;5979;50.800;4.904;2023-05-10T04:38:46;13.50;99.90
11840;DHT22;5979;50.800;4.904;2023-05-10T04:41:12;13.50;99.90
11840;DHT22;5979;50.800;4.904;2023-05-10T04:43:38;13.50;99.90
11840;DHT22;5979;50.800;4.904;2023-05-10T04:46:05;13.50;99.90
11840;DHT22;5979;50.800;4.904;2023-05-10T04:48:30;13.50;99.90
11840;DHT22;5979;50.800;4.904;2023-05-10T04:50:56;13.50;99.90
11840;DHT22;5979;50.800;4.904;2023-05-10T04:53:22;13.50;99.90
11840;DHT22;5979;50.800;4.904;2023-05-10T04:55:48;13.50;99.90
11840;DHT22;5979;50.800;4.904;2023-05-10T04:58:14;13.50;99.90
11840;DHT22;5979;50.800;4.904;2023-05-10T05:00:40;13.50;99.90
11840;DHT22;5979;50.800;4.904;2023-05-10T05:03:05;13.50;99.90
11840;DHT22;5979;50.800;4.904;2023-05-10T05:05:31;13.60;99.90
11840;DHT22;5979;50.800;4.904;2023-05-10T05:07:57;13.50;99.90
11840;DHT22;5979;50.800;4.904;2023-05-10T05:10:22;13.60;99.90
11840;DHT22;5979;50.800;4.904;2023-05-10T05:12:48;13.60;99.90
11840;DHT22;5979;50.800;4.904;2023-05-10T05:15:14;13.70;99.90
11840;DHT22;5979;50.800;4.904;2023-05-10T05:17:42;13.60;99.90
11840;DHT22;5979;50.800;4.904;2023-05-10T05:20:08;13.70;99.90
11840;DHT22;5979;50.800;4.904;2023-05-10T05:22:36;13.70;99.90
11840;DHT22;5979;50.800;4.904;2023-05-10T05:25:01;13.70;99.90
11840;DHT22;5979;50.800;4.904;2023-05-10T05:27:29;13.70;99.90
11840;DHT22;5979;50.800;4.904;2023-05-10T05:29:58;13.70;99.90
11840;DHT22;5979;50.800;4.904;2023-05-10T05:32:24;13.70;99.90
11840;DHT22;5979;50.800;4.904;2023-05-10T05:34:51;13.70;99.90
11840;DHT22;5979;50.800;4.904;2023-05-10T05:37:18;13.70;99.90
11840;DHT22;5979;50.800;4.904;2023-05-10T05:39:45;13.70;99.90
11840;DHT22;5979;50.800;4.904;2023-05-10T05:42:11;13.70;99.90
11840;DHT22;5979;50.800;4.904;2023-05-10T05:44:38;13.70;99.90
11840;DHT22;5979;50.800;4.904;2023-05-10T05:47:04;13.70;99.90
11840;DHT22;5979;50.800;4.904;2023-05-10T05:49:30;13.70;99.90
11840;DHT22;5979;50.800;4.904;2023-05-10T05:52:00;13.70;99.90
11840;DHT22;5979;50.800;4.904;2023-05-10T05:54:29;13.70;99.90
11840;DHT22;5979;50.800;4.904;2023-05-10T05:56:59;13.70;99.90
11840;DHT22;5979;50.800;4.904;2023-05-10T05:59:26;13.80;99.90
11840;DHT22;5979;50.800;4.904;2023-05-10T06:01:52;13.80;99.90
11840;DHT22;5979;50.800;4.904;2023-05-10T06:04:18;13.80;99.90
11840;DHT22;5979;50.800;4.904;2023-05-10T06:06:44;13.80;99.90
11840;DHT22;5979;50.800;4.904;2023-05-10T06:09:10;13.90;99.90
11840;DHT22;5979;50.800;4.904;2023-05-10T06:11:36;13.90;99.90
11840;DHT22;5979;50.800;4.904;2023-05-10T06:14:03;13.90;99.90
11840;DHT22;5979;50.800;4.904;2023-05-10T06:16:34;13.90;99.90
11840;DHT22;5979;50.800;4.904;2023-05-10T06:18:59;14.00;99.90
11840;DHT22;5979;50.800;4.904;2023-05-10T06:21:25;14.00;99.90
11840;DHT22;5979;50.800;4.904;2023-05-10T06:23:51;14.10;99.90
11840;DHT22;5979;50.800;4.904;2023-05-10T06:26:16;14.10;99.90
11840;DHT22;5979;50.800;4.904;2023-05-10T06:28:42;14.10;99.90
11840;DHT22;5979;50.800;4.904;2023-05-10T06:31:08;14.10;99.90
11840;DHT22;5979;50.800;4.904;2023-05-10T06:33:34;14.10;99.90
11840;DHT22;5979;50.800;4.904;2023-05-10T06:35:59;14.10;99.90
11840;DHT22;5979;50.800;4.904;2023-05-10T06:38:25;14.10;99.90
11840;DHT22;5979;50.800;4.904;2023-05-10T06:40:51;14.10;99.90
11840;DHT22;5979;50.800;4.904;2023-05-10T06:43:17;14.00;99.90
11840;DHT22;5979;50.800;4.904;2023-05-10T06:45:43;14.00;99.90
11840;DHT22;5979;50.800;4.904;2023-05-10T06:48:09;13.90;99.90
11840;DHT22;5979;50.800;4.904;2023-05-10T06:50:35;13.90;99.90
11840;DHT22;5979;50.800;4.904;2023-05-10T06:53:01;13.90;99.90
11840;DHT22;5979;50.800;4.904;2023-05-10T06:55:27;13.90;99.90
11840;DHT22;5979;50.800;4.904;2023-05-10T06:57:54;13.80;99.90
11840;DHT22;5979;50.800;4.904;2023-05-10T07:00:20;13.80;99.90
11840;DHT22;5979;50.800;4.904;2023-05-10T07:02:46;13.70;99.90
11840;DHT22;5979;50.800;4.904;2023-05-10T07:05:12;13.70;99.90
11840;DHT22;5979;50.800;4.904;2023-05-10T07:07:38;13.60;99.90
11840;DHT22;5979;50.800;4.904;2023-05-10T07:10:05;13.60;99.90
11840;DHT22;5979;50.800;4.904;2023-05-10T07:12:32;13.60;99.90
11840;DHT22;5979;50.800;4.904;2023-05-10T07:14:58;13.60;99.90
11840;DHT22;5979;50.800;4.904;2023-05-10T07:17:24;13.60;99.90
11840;DHT22;5979;50.800;4.904;2023-05-10T07:19:50;13.60;99.90
11840;DHT22;5979;50.800;4.904;2023-05-10T07:22:16;13.70;99.90
11840;DHT22;5979;50.800;4.904;2023-05-10T07:24:42;13.60;99.90
11840;DHT22;5979;50.800;4.904;2023-05-10T07:27:08;13.60;99.90
11840;DHT22;5979;50.800;4.904;2023-05-10T07:29:35;13.70;99.90
11840;DHT22;5979;50.800;4.904;2023-05-10T07:32:00;13.70;99.90
11840;DHT22;5979;50.800;4.904;2023-05-10T07:34:26;13.70;99.90
11840;DHT22;5979;50.800;4.904;2023-05-10T07:36:52;13.70;99.90
11840;DHT22;5979;50.800;4.904;2023-05-10T07:39:18;13.80;99.90
11840;DHT22;5979;50.800;4.904;2023-05-10T07:41:45;13.80;99.90
11840;DHT22;5979;50.800;4.904;2023-05-10T07:44:11;13.90;99.90
11840;DHT22;5979;50.800;4.904;2023-05-10T07:46:37;14.00;99.90
11840;DHT22;5979;50.800;4.904;2023-05-10T07:49:03;14.00;99.90
11840;DHT22;5979;50.800;4.904;2023-05-10T07:51:28;14.10;99.90
11840;DHT22;5979;50.800;4.904;2023-05-10T07:53:54;14.20;99.90
11840;DHT22;5979;50.800;4.904;2023-05-10T07:56:26;14.20;99.90
11840;DHT22;5979;50.800;4.904;2023-05-10T07:58:58;14.30;99.90
11840;DHT22;5979;50.800;4.904;2023-05-10T08:01:25;14.30;99.90
11840;DHT22;5979;50.800;4.904;2023-05-10T08:03:51;14.40;99.90
11840;DHT22;5979;50.800;4.904;2023-05-10T08:06:19;14.40;99.90
11840;DHT22;5979;50.800;4.904;2023-05-10T08:08:48;14.50;99.90
11840;DHT22;5979;50.800;4.904;2023-05-10T08:11:18;14.50;99.90
11840;DHT22;5979;50.800;4.904;2023-05-10T08:13:48;14.60;99.90
11840;DHT22;5979;50.800;4.904;2023-05-10T08:16:14;14.60;99.90
11840;DHT22;5979;50.800;4.904;2023-05-10T08:18:40;14.50;99.90
11840;DHT22;5979;50.800;4.904;2023-05-10T08:21:07;14.50;99.90
11840;DHT22;5979;50.800;4.904;2023-05-10T08:23:32;14.50;99.90
11840;DHT22;5979;50.800;4.904;2023-05-10T08:25:59;14.50;99.90
11840;DHT22;5979;50.800;4.904;2023-05-10T08:28:24;14.40;99.90
11840;DHT22;5979;50.800;4.904;2023-05-10T08:30:50;14.40;99.90
11840;DHT22;5979;50.800;4.904;2023-05-10T08:33:17;14.40;99.90
11840;DHT22;5979;50.800;4.904;2023-05-10T08:35:43;14.40;99.90
11840;DHT22;5979;50.800;4.904;2023-05-10T08:38:09;14.40;99.90
11840;DHT22;5979;50.800;4.904;2023-05-10T08:40:37;14.40;99.90
11840;DHT22;5979;50.800;4.904;2023-05-10T08:43:09;14.50;99.90
11840;DHT22;5979;50.800;4.904;2023-05-10T08:45:45;14.40;99.90
11840;DHT22;5979;50.800;4.904;2023-05-10T08:48:12;14.40;99.90
11840;DHT22;5979;50.800;4.904;2023-05-10T08:50:41;14.40;99.90
11840;DHT22;5979;50.800;4.904;2023-05-10T08:53:13;14.50;99.90
11840;DHT22;5979;50.800;4.904;2023-05-10T08:55:40;14.50;99.90
11840;DHT22;5979;50.800;4.904;2023-05-10T08:58:08;14.50;99.90
11840;DHT22;5979;50.800;4.904;2023-05-10T09:00:35;14.50;99.90
11840;DHT22;5979;50.800;4.904;2023-05-10T09:03:03;14.50;99.90
11840;DHT22;5979;50.800;4.904;2023-05-10T09:05:29;14.50;99.90
11840;DHT22;5979;50.800;4.904;2023-05-10T09:07:55;14.50;99.90
11840;DHT22;5979;50.800;4.904;2023-05-10T09:10:21;14.50;99.90
11840;DHT22;5979;50.800;4.904;2023-05-10T09:12:48;14.60;99.90
11840;DHT22;5979;50.800;4.904;2023-05-10T09:15:18;14.70;99.90
11840;DHT22;5979;50.800;4.904;2023-05-10T09:17:46;14.70;99.90
11840;DHT22;5979;50.800;4.904;2023-05-10T09:20:11;14.70;99.90
11840;DHT22;5979;50.800;4.904;2023-05-10T09:22:37;14.60;99.90
11840;DHT22;5979;50.800;4.904;2023-05-10T09:27:34;14.70;99.90
11840;DHT22;5979;50.800;4.904;2023-05-10T09:30:00;14.70;99.90
11840;DHT22;5979;50.800;4.904;2023-05-10T09:32:44;14.70;99.90
11840;DHT22;5979;50.800;4.904;2023-05-10T09:35:15;14.70;99.90
11840;DHT22;5979;50.800;4.904;2023-05-10T09:37:44;14.70;99.90
11840;DHT22;5979;50.800;4.904;2023-05-10T09:40:13;14.70;99.90
11840;DHT22;5979;50.800;4.904;2023-05-10T09:43:03;14.70;99.90
11840;DHT22;5979;50.800;4.904;2023-05-10T09:45:29;14.70;99.90
11840;DHT22;5979;50.800;4.904;2023-05-10T09:47:56;14.70;99.90
11840;DHT22;5979;50.800;4.904;2023-05-10T09:50:22;14.70;99.90
11840;DHT22;5979;50.800;4.904;2023-05-10T09:55:15;14.60;99.90
11840;DHT22;5979;50.800;4.904;2023-05-10T09:57:41;14.60;99.90
11840;DHT22;5979;50.800;4.904;2023-05-10T10:00:07;14.70;99.90
11840;DHT22;5979;50.800;4.904;2023-05-10T10:02:35;14.60;99.90
11840;DHT22;5979;50.800;4.904;2023-05-10T10:05:02;14.70;99.90
11840;DHT22;5979;50.800;4.904;2023-05-10T10:07:31;14.70;99.90
11840;DHT22;5979;50.800;4.904;2023-05-10T10:09:58;14.80;99.90
11840;DHT22;5979;50.800;4.904;2023-05-10T10:12:25;14.80;99.90
11840;DHT22;5979;50.800;4.904;2023-05-10T10:14:51;14.80;99.90
11840;DHT22;5979;50.800;4.904;2023-05-10T10:17:18;14.80;99.90
11840;DHT22;5979;50.800;4.904;2023-05-10T10:19:45;14.90;99.90
11840;DHT22;5979;50.800;4.904;2023-05-10T10:22:12;14.90;99.90
11840;DHT22;5979;50.800;4.904;2023-05-10T10:24:38;15.00;99.90
11840;DHT22;5979;50.800;4.904;2023-05-10T10:35:53;15.30;99.90
11840;DHT22;5979;50.800;4.904;2023-05-10T10:38:19;15.30;99.90
11840;DHT22;5979;50.800;4.904;2023-05-10T10:40:44;15.40;99.90
11840;DHT22;5979;50.800;4.904;2023-05-10T10:43:26;15.40;99.90
11840;DHT22;5979;50.800;4.904;2023-05-10T10:46:17;15.50;99.90
11840;DHT22;5979;50.800;4.904;2023-05-10T10:49:09;15.60;99.90
11840;DHT22;5979;50.800;4.904;2023-05-10T10:51:39;15.70;99.90
11840;DHT22;5979;50.800;4.904;2023-05-10T10:54:11;15.90;99.90
11840;DHT22;5979;50.800;4.904;2023-05-10T10:56:37;16.00;99.90
11840;DHT22;5979;50.800;4.904;2023-05-10T10:59:03;16.10;99.90
11840;DHT22;5979;50.800;4.904;2023-05-10T11:01:41;16.30;99.90
11840;DHT22;5979;50.800;4.904;2023-05-10T11:06:39;16.40;99.90
11840;DHT22;5979;50.800;4.904;2023-05-10T11:09:10;16.50;99.90
11840;DHT22;5979;50.800;4.904;2023-05-10T11:11:43;16.60;99.90
11840;DHT22;5979;50.800;4.904;2023-05-10T11:14:13;16.60;99.90
11840;DHT22;5979;50.800;4.904;2023-05-10T11:16:43;16.60;99.90
11840;DHT22;5979;50.800;4.904;2023-05-10T11:19:11;16.50;99.90
11840;DHT22;5979;50.800;4.904;2023-05-10T11:21:51;16.50;99.90
11840;DHT22;5979;50.800;4.904;2023-05-10T11:24:36;16.40;99.90
11840;DHT22;5979;50.800;4.904;2023-05-10T11:27:02;16.50;99.90
11840;DHT22;5979;50.800;4.904;2023-05-10T11:29:28;16.50;99.90
11840;DHT22;5979;50.800;4.904;2023-05-10T11:31:57;16.50;99.90
11840;DHT22;5979;50.800;4.904;2023-05-10T11:34:30;16.50;99.90
11840;DHT22;5979;50.800;4.904;2023-05-10T11:36:57;16.50;99.90
11840;DHT22;5979;50.800;4.904;2023-05-10T11:39:27;16.50;99.90
11840;DHT22;5979;50.800;4.904;2023-05-10T11:41:54;16.50;99.90
11840;DHT22;5979;50.800;4.904;2023-05-10T11:44:19;16.50;99.90
11840;DHT22;5979;50.800;4.904;2023-05-10T11:46:45;16.50;99.90
11840;DHT22;5979;50.800;4.904;2023-05-10T11:49:11;16.40;99.90
11840;DHT22;5979;50.800;4.904;2023-05-10T11:51:38;16.40;99.90
11840;DHT22;5979;50.800;4.904;2023-05-10T11:54:09;16.40;99.90
11840;DHT22;5979;50.800;4.904;2023-05-10T11:56:36;16.50;99.90
11840;DHT22;5979;50.800;4.904;2023-05-10T11:59:03;16.50;99.90
11840;DHT22;5979;50.800;4.904;2023-05-10T12:01:29;16.50;99.90
11840;DHT22;5979;50.800;4.904;2023-05-10T12:03:57;16.60;99.90
11840;DHT22;5979;50.800;4.904;2023-05-10T12:06:29;16.70;99.90
11840;DHT22;5979;50.800;4.904;2023-05-10T12:08:57;16.70;99.90
11840;DHT22;5979;50.800;4.904;2023-05-10T12:11:28;16.80;99.90
11840;DHT22;5979;50.800;4.904;2023-05-10T12:13:55;16.80;99.90
11840;DHT22;5979;50.800;4.904;2023-05-10T12:16:28;16.90;99.90
11840;DHT22;5979;50.800;4.904;2023-05-10T12:18:57;17.00;99.90
11840;DHT22;5979;50.800;4.904;2023-05-10T12:21:23;17.00;99.90
11840;DHT22;5979;50.800;4.904;2023-05-10T12:23:53;17.00;99.90
11840;DHT22;5979;50.800;4.904;2023-05-10T12:26:24;17.10;99.90
11840;DHT22;5979;50.800;4.904;2023-05-10T12:28:53;17.20;99.90
11840;DHT22;5979;50.800;4.904;2023-05-10T12:31:18;17.30;99.90
11840;DHT22;5979;50.800;4.904;2023-05-10T12:33:45;17.30;99.90
11840;DHT22;5979;50.800;4.904;2023-05-10T12:36:15;17.50;99.90
11840;DHT22;5979;50.800;4.904;2023-05-10T12:38:44;17.60;99.90
11840;DHT22;5979;50.800;4.904;2023-05-10T12:41:15;17.60;99.90
11840;DHT22;5979;50.800;4.904;2023-05-10T12:43:41;17.60;99.90
11840;DHT22;5979;50.800;4.904;2023-05-10T12:46:11;17.60;99.90
11840;DHT22;5979;50.800;4.904;2023-05-10T12:48:39;17.70;99.90
11840;DHT22;5979;50.800;4.904;2023-05-10T12:51:05;17.80;99.90
11840;DHT22;5979;50.800;4.904;2023-05-10T12:53:35;17.80;99.90
11840;DHT22;5979;50.800;4.904;2023-05-10T12:56:01;18.00;99.90
11840;DHT22;5979;50.800;4.904;2023-05-10T12:58:26;18.10;99.90
11840;DHT22;5979;50.800;4.904;2023-05-10T13:00:53;18.30;99.90
11840;DHT22;5979;50.800;4.904;2023-05-10T13:03:19;18.30;99.90
11840;DHT22;5979;50.800;4.904;2023-05-10T13:05:45;18.30;99.90
11840;DHT22;5979;50.800;4.904;2023-05-10T13:08:10;18.30;99.90
11840;DHT22;5979;50.800;4.904;2023-05-10T13:10:36;18.40;99.90
11840;DHT22;5979;50.800;4.904;2023-05-10T13:13:02;18.40;99.90
11840;DHT22;5979;50.800;4.904;2023-05-10T13:15:28;18.50;99.90
11840;DHT22;5979;50.800;4.904;2023-05-10T13:17:54;18.60;99.90
11840;DHT22;5979;50.800;4.904;2023-05-10T13:20:20;18.60;99.90
11840;DHT22;5979;50.800;4.904;2023-05-10T13:22:46;18.50;99.90
11840;DHT22;5979;50.800;4.904;2023-05-10T13:25:12;18.50;99.90
11840;DHT22;5979;50.800;4.904;2023-05-10T13:27:39;18.50;99.90
11840;DHT22;5979;50.800;4.904;2023-05-10T13:30:07;18.60;99.90
11840;DHT22;5979;50.800;4.904;2023-05-10T13:32:33;18.50;99.90
11840;DHT22;5979;50.800;4.904;2023-05-10T13:34:59;18.70;99.90
11840;DHT22;5979;50.800;4.904;2023-05-10T13:37:25;18.70;99.90
11840;DHT22;5979;50.800;4.904;2023-05-10T13:39:51;18.70;99.90
11840;DHT22;5979;50.800;4.904;2023-05-10T13:42:17;18.70;99.90
11840;DHT22;5979;50.800;4.904;2023-05-10T13:44:43;18.70;99.90
11840;DHT22;5979;50.800;4.904;2023-05-10T13:47:09;18.70;99.90
11840;DHT22;5979;50.800;4.904;2023-05-10T13:49:35;18.60;99.90
11840;DHT22;5979;50.800;4.904;2023-05-10T13:52:01;18.70;99.90
11840;DHT22;5979;50.800;4.904;2023-05-10T13:54:33;18.70;99.90
11840;DHT22;5979;50.800;4.904;2023-05-10T13:56:59;18.70;99.90
11840;DHT22;5979;50.800;4.904;2023-05-10T13:59:25;18.60;99.90
11840;DHT22;5979;50.800;4.904;2023-05-10T14:01:51;18.60;99.90
11840;DHT22;5979;50.800;4.904;2023-05-10T14:04:17;18.60;99.90
11840;DHT22;5979;50.800;4.904;2023-05-10T14:06:42;18.60;99.90
11840;DHT22;5979;50.800;4.904;2023-05-10T14:09:08;18.60;99.90
11840;DHT22;5979;50.800;4.904;2023-05-10T14:11:34;18.70;99.90
11840;DHT22;5979;50.800;4.904;2023-05-10T14:14:00;18.70;99.90
11840;DHT22;5979;50.800;4.904;2023-05-10T14:16:25;18.80;99.90
11840;DHT22;5979;50.800;4.904;2023-05-10T14:18:52;18.70;99.90
11840;DHT22;5979;50.800;4.904;2023-05-10T14:21:18;18.80;99.90
11840;DHT22;5979;50.800;4.904;2023-05-10T14:23:43;18.80;99.90
11840;DHT22;5979;50.800;4.904;2023-05-10T14:26:09;18.80;99.90
11840;DHT22;5979;50.800;4.904;2023-05-10T14:28:35;18.80;99.90
11840;DHT22;5979;50.800;4.904;2023-05-10T14:31:01;18.80;99.90
11840;DHT22;5979;50.800;4.904;2023-05-10T14:33:27;18.80;99.90
11840;DHT22;5979;50.800;4.904;2023-05-10T14:35:53;18.80;99.90
11840;DHT22;5979;50.800;4.904;2023-05-10T14:38:22;18.80;99.90
11840;DHT22;5979;50.800;4.904;2023-05-10T14:40:47;18.90;99.90
11840;DHT22;5979;50.800;4.904;2023-05-10T14:43:13;18.90;99.90
11840;DHT22;5979;50.800;4.904;2023-05-10T14:45:39;18.90;99.90
11840;DHT22;5979;50.800;4.904;2023-05-10T14:48:05;18.80;99.90
11840;DHT22;5979;50.800;4.904;2023-05-10T14:50:31;18.90;99.90
11840;DHT22;5979;50.800;4.904;2023-05-10T14:52:57;18.90;99.90
11840;DHT22;5979;50.800;4.904;2023-05-10T14:55:24;18.90;99.90
11840;DHT22;5979;50.800;4.904;2023-05-10T14:57:50;18.90;99.90
11840;DHT22;5979;50.800;4.904;2023-05-10T15:00:16;19.00;99.90
11840;DHT22;5979;50.800;4.904;2023-05-10T15:02:42;19.10;99.90
11840;DHT22;5979;50.800;4.904;2023-05-10T15:05:08;19.10;99.90
11840;DHT22;5979;50.800;4.904;2023-05-10T15:07:34;19.10;99.90
11840;DHT22;5979;50.800;4.904;2023-05-10T15:09:59;19.00;99.90
11840;DHT22;5979;50.800;4.904;2023-05-10T15:12:25;18.90;99.90
11840;DHT22;5979;50.800;4.904;2023-05-10T15:14:51;18.90;99.90
11840;DHT22;5979;50.800;4.904;2023-05-10T15:17:17;18.90;99.90
11840;DHT22;5979;50.800;4.904;2023-05-10T15:19:43;18.80;99.90
11840;DHT22;5979;50.800;4.904;2023-05-10T15:22:08;18.70;99.90
11840;DHT22;5979;50.800;4.904;2023-05-10T15:24:34;18.60;99.90
11840;DHT22;5979;50.800;4.904;2023-05-10T15:27:00;18.50;99.90
11840;DHT22;5979;50.800;4.904;2023-05-10T15:29:26;18.50;99.90
11840;DHT22;5979;50.800;4.904;2023-05-10T15:31:52;18.50;99.90
11840;DHT22;5979;50.800;4.904;2023-05-10T15:34:18;18.50;99.90
11840;DHT22;5979;50.800;4.904;2023-05-10T15:36:45;18.60;99.90
11840;DHT22;5979;50.800;4.904;2023-05-10T15:39:11;18.60;99.90
11840;DHT22;5979;50.800;4.904;2023-05-10T15:41:37;18.50;99.90
11840;DHT22;5979;50.800;4.904;2023-05-10T15:44:03;18.50;99.90
11840;DHT22;5979;50.800;4.904;2023-05-10T15:46:29;18.40;99.90
11840;DHT22;5979;50.800;4.904;2023-05-10T15:48:56;18.30;99.90
11840;DHT22;5979;50.800;4.904;2023-05-10T15:51:22;18.20;99.90
11840;DHT22;5979;50.800;4.904;2023-05-10T15:53:48;18.10;99.90
11840;DHT22;5979;50.800;4.904;2023-05-10T15:56:14;18.10;99.90
11840;DHT22;5979;50.800;4.904;2023-05-10T15:58:40;18.10;99.90
11840;DHT22;5979;50.800;4.904;2023-05-10T16:01:06;18.20;99.90
11840;DHT22;5979;50.800;4.904;2023-05-10T16:03:33;18.10;99.90
11840;DHT22;5979;50.800;4.904;2023-05-10T16:05:59;18.20;99.90
11840;DHT22;5979;50.800;4.904;2023-05-10T16:08:26;18.20;99.90
11840;DHT22;5979;50.800;4.904;2023-05-10T16:10:52;18.10;99.90
11840;DHT22;5979;50.800;4.904;2023-05-10T16:13:18;18.20;99.90
11840;DHT22;5979;50.800;4.904;2023-05-10T16:15:43;18.20;99.90